Terminal Aerodrome Forecast
Issued by NWS Shreveport, LA

Home | Current Version | Previous Version | Text Only | Print | Product List | Glossary On
Versions: 1 2 3 4 5 6 7 8 9 10 11 12 13 14 15 16 17 18 19 20
497
FTUS44 KSHV 271735
TAFLFK
TAF
KLFK 271735Z 2718/2818 VRB05KT P6SM -TSRA SCT011 OVC025CB
      TEMPO 2718/2721 VRB12G24KT 1 1/2SM +TSRA BR BKN011 OVC025CB
     FM280200 16008KT P6SM BKN015 OVC080
     FM281000 14007KT 4SM BR OVC010
     FM281500 17008KT P6SM SCT012 BKN035=

USA.gov is the U.S. government's official web portal to all federal, state and local government web resources and services.